Time;durP1;ratioP1;P1;durP2;ratioP2;P2;SDS_P1;SDS_P2;PMS_P1;PMS_P2;Temp;Humidity;BMP_temperature;BMP_pressure;BME280_temperature;BME280_humidity;BME280_pressure;Samples;Min_cycle;Max_cycle;Signal;HPM_P1;HPM_P2
2021/09/16 00:01:42;;;;;;;11.68;7.72;;;17.40;99.90;;;;;;5020906;28;20283;-79
2021/09/16 00:04:09;;;;;;;9.07;6.97;;;17.30;99.90;;;;;;5017074;28;20264;-80
2021/09/16 00:06:36;;;;;;;11.43;7.15;;;17.30;99.90;;;;;;5001036;28;20283;-79
2021/09/16 00:09:03;;;;;;;10.80;6.80;;;17.30;99.90;;;;;;5007849;28;20240;-79
2021/09/16 00:11:32;;;;;;;11.63;6.95;;;17.20;99.90;;;;;;5020459;28;20208;-79
2021/09/16 00:13:59;;;;;;;10.07;6.57;;;17.30;99.90;;;;;;5021652;28;20295;-79
2021/09/16 00:16:26;;;;;;;11.63;6.20;;;17.20;99.90;;;;;;5019348;28;20239;-80
2021/09/16 00:18:53;;;;;;;9.90;6.45;;;17.20;99.90;;;;;;5020021;28;20375;-80
2021/09/16 00:21:20;;;;;;;7.65;5.68;;;17.30;99.90;;;;;;5020109;28;20291;-79
2021/09/16 00:23:46;;;;;;;8.63;5.72;;;17.20;99.90;;;;;;5020552;28;20227;-80
2021/09/16 00:26:13;;;;;;;8.60;5.40;;;17.30;99.90;;;;;;5019928;28;20278;-79
2021/09/16 00:28:42;;;;;;;8.52;5.15;;;17.20;99.90;;;;;;5021070;28;20282;-80
2021/09/16 00:31:09;;;;;;;9.63;5.65;;;17.20;99.90;;;;;;5020733;28;20212;-80
2021/09/16 00:33:36;;;;;;;8.90;4.70;;;17.20;99.90;;;;;;5018884;28;20224;-79
2021/09/16 00:36:04;;;;;;;6.22;4.32;;;17.20;99.90;;;;;;5020812;28;20251;-78
2021/09/16 00:38:31;;;;;;;6.75;4.40;;;17.20;99.90;;;;;;5020063;28;20668;-79
2021/09/16 00:40:58;;;;;;;5.95;4.30;;;17.20;99.90;;;;;;5020686;28;20232;-79
2021/09/16 00:43:25;;;;;;;5.88;3.55;;;17.20;99.90;;;;;;5019101;28;20270;-80
2021/09/16 00:46:02;;;;;;;6.45;3.65;;;17.20;99.90;;;;;;5022160;28;20753;-79
2021/09/16 00:48:29;;;;;;;4.20;3.33;;;17.10;99.90;;;;;;5020589;28;20203;-81
2021/09/16 00:50:56;;;;;;;5.38;3.60;;;17.10;99.90;;;;;;5018698;28;20219;-79
2021/09/16 00:53:24;;;;;;;4.20;3.53;;;17.10;99.90;;;;;;5018518;28;20236;-80
2021/09/16 00:55:52;;;;;;;4.68;3.25;;;17.10;99.90;;;;;;5019546;28;20255;-80
2021/09/16 00:58:21;;;;;;;5.32;3.40;;;17.10;99.90;;;;;;5020746;28;20235;-79
2021/09/16 01:00:48;;;;;;;7.03;3.78;;;17.10;99.90;;;;;;5020640;28;20660;-79
2021/09/16 01:03:16;;;;;;;5.55;3.60;;;17.10;99.90;;;;;;5020822;28;20220;-80
2021/09/16 01:05:43;;;;;;;4.90;3.00;;;17.10;99.90;;;;;;5019217;28;20232;-79
2021/09/16 01:08:10;;;;;;;5.88;3.20;;;17.10;99.90;;;;;;5021188;28;20201;-79
2021/09/16 01:10:37;;;;;;;4.15;3.30;;;17.00;99.90;;;;;;5020011;28;20217;-80
2021/09/16 01:13:04;;;;;;;5.25;3.20;;;17.00;99.90;;;;;;5019983;28;20208;-79
2021/09/16 01:15:31;;;;;;;3.45;3.15;;;17.00;99.90;;;;;;5020516;28;20229;-80
2021/09/16 01:17:58;;;;;;;3.35;2.80;;;17.00;99.90;;;;;;5019952;28;20661;-80
2021/09/16 01:20:26;;;;;;;5.40;3.17;;;17.00;99.90;;;;;;5020000;28;20362;-78
2021/09/16 01:22:55;;;;;;;6.15;3.10;;;17.00;99.90;;;;;;5019747;28;20239;-80
2021/09/16 01:25:26;;;;;;;5.65;3.33;;;16.90;99.90;;;;;;5018655;28;20207;-79
2021/09/16 01:27:53;;;;;;;5.45;3.03;;;17.00;99.90;;;;;;5019672;28;20253;-79
2021/09/16 01:30:20;;;;;;;10.82;2.90;;;16.90;99.90;;;;;;5017923;28;20648;-78
2021/09/16 01:32:48;;;;;;;5.10;3.20;;;16.90;99.90;;;;;;5020182;28;20272;-80
2021/09/16 01:35:15;;;;;;;4.88;2.83;;;16.90;99.90;;;;;;5019313;28;20676;-78
2021/09/16 01:37:42;;;;;;;4.05;2.80;;;16.90;99.90;;;;;;5019372;28;20311;-79
2021/09/16 01:40:12;;;;;;;4.28;2.80;;;16.90;99.90;;;;;;5018368;28;20260;-79
2021/09/16 01:42:41;;;;;;;4.00;2.75;;;16.90;99.90;;;;;;5018349;28;20200;-79
2021/09/16 01:45:13;;;;;;;5.45;3.20;;;16.90;99.90;;;;;;5019852;28;20689;-79
2021/09/16 01:47:40;;;;;;;5.07;2.78;;;16.90;99.90;;;;;;5018719;28;20247;-80
2021/09/16 01:50:07;;;;;;;6.05;3.05;;;16.90;99.90;;;;;;5018831;28;20208;-79
2021/09/16 01:52:34;;;;;;;5.40;2.63;;;16.80;99.90;;;;;;5017942;28;20269;-79
2021/09/16 01:55:01;;;;;;;4.15;2.50;;;16.90;99.90;;;;;;4998007;28;20281;-80
2021/09/16 01:57:30;;;;;;;3.65;2.47;;;16.80;99.90;;;;;;4999276;28;20251;-79
2021/09/16 01:59:56;;;;;;;6.97;2.40;;;16.80;99.90;;;;;;5000004;28;20292;-79
2021/09/16 02:02:23;;;;;;;4.47;2.83;;;16.90;99.90;;;;;;4998698;28;20641;-79
2021/09/16 02:04:50;;;;;;;4.55;2.25;;;16.90;99.90;;;;;;4998618;28;20601;-79
2021/09/16 02:07:17;;;;;;;4.78;2.13;;;16.80;99.90;;;;;;4999338;28;20284;-79
2021/09/16 02:09:44;;;;;;;6.80;2.40;;;16.90;99.90;;;;;;5023904;28;20290;-79
2021/09/16 02:12:11;;;;;;;5.10;2.50;;;16.80;99.90;;;;;;5038037;28;20184;-79
2021/09/16 02:14:40;;;;;;;5.30;2.50;;;16.70;99.90;;;;;;5022560;28;20223;-78
2021/09/16 02:17:07;;;;;;;5.68;2.08;;;16.70;99.90;;;;;;5009564;28;20298;-78
2021/09/16 02:19:34;;;;;;;3.35;1.85;;;16.70;99.90;;;;;;5017989;28;20295;-80
2021/09/16 02:22:00;;;;;;;3.55;1.55;;;16.60;99.90;;;;;;5015709;28;20640;-80
2021/09/16 02:24:27;;;;;;;3.67;1.45;;;16.50;99.90;;;;;;5017117;28;20275;-78
2021/09/16 02:26:54;;;;;;;3.67;1.60;;;16.50;99.90;;;;;;5016875;28;20224;-80
2021/09/16 02:29:21;;;;;;;3.28;1.20;;;16.50;99.90;;;;;;5017852;28;20228;-78
2021/09/16 02:31:50;;;;;;;2.80;1.30;;;16.40;99.90;;;;;;5016775;28;20661;-78
2021/09/16 02:34:16;;;;;;;3.10;1.50;;;16.40;99.90;;;;;;5016667;28;20246;-80
2021/09/16 02:36:43;;;;;;;3.85;1.17;;;16.30;99.90;;;;;;5016148;28;20228;-79
2021/09/16 02:39:10;;;;;;;1.05;1.02;;;16.40;99.90;;;;;;5017317;28;20208;-78
2021/09/16 02:41:37;;;;;;;3.60;1.20;;;16.30;99.90;;;;;;5017421;28;20235;-79
2021/09/16 02:44:04;;;;;;;6.30;1.05;;;16.30;99.90;;;;;;5016706;28;20259;-79
2021/09/16 02:46:31;;;;;;;4.32;0.95;;;16.30;99.90;;;;;;5017216;28;20692;-78
2021/09/16 02:49:00;;;;;;;1.35;0.90;;;16.30;99.90;;;;;;5017065;28;20235;-79
2021/09/16 02:51:27;;;;;;;1.58;1.00;;;16.20;99.90;;;;;;5018245;28;20267;-78
2021/09/16 02:53:53;;;;;;;1.30;0.68;;;16.20;99.90;;;;;;5017229;28;20235;-79
2021/09/16 02:56:20;;;;;;;1.52;1.05;;;16.10;99.90;;;;;;5017024;28;20251;-78
2021/09/16 02:58:47;;;;;;;5.22;1.38;;;16.10;99.90;;;;;;5017948;28;20204;-79
2021/09/16 03:01:14;;;;;;;1.55;0.90;;;16.10;99.90;;;;;;5017770;28;20239;-79
2021/09/16 03:03:41;;;;;;;2.50;0.80;;;16.10;99.90;;;;;;5017314;28;20204;-78
2021/09/16 03:06:09;;;;;;;5.03;1.02;;;16.00;99.90;;;;;;5016608;28;20275;-79
2021/09/16 03:08:36;;;;;;;4.25;1.20;;;15.90;99.90;;;;;;5017613;28;20200;-78
2021/09/16 03:11:03;;;;;;;5.05;0.90;;;15.90;99.90;;;;;;5016456;28;20236;-78
2021/09/16 03:13:30;;;;;;;4.35;1.20;;;15.90;99.90;;;;;;5017889;28;20239;-80
2021/09/16 03:15:57;;;;;;;2.08;0.82;;;15.90;99.90;;;;;;5021270;28;20224;-79
2021/09/16 03:18:24;;;;;;;1.95;1.00;;;16.00;99.90;;;;;;5020832;28;20231;-80
2021/09/16 03:20:51;;;;;;;4.90;1.10;;;15.90;99.90;;;;;;5020522;28;20232;-78
2021/09/16 03:23:19;;;;;;;6.13;1.30;;;15.90;99.90;;;;;;5022754;28;20237;-80
2021/09/16 03:25:46;;;;;;;2.67;1.20;;;15.90;99.90;;;;;;5021123;28;20236;-79
2021/09/16 03:28:13;;;;;;;4.85;0.95;;;15.80;99.90;;;;;;5023300;28;20211;-79
2021/09/16 03:30:40;;;;;;;2.53;1.17;;;15.80;99.90;;;;;;5022239;28;20231;-79
2021/09/16 03:33:07;;;;;;;2.38;0.98;;;15.80;99.90;;;;;;5020939;28;20227;-79
2021/09/16 03:35:33;;;;;;;1.65;0.80;;;15.80;99.90;;;;;;5021568;28;20259;-79
2021/09/16 03:38:00;;;;;;;4.22;0.88;;;15.80;99.90;;;;;;5019713;28;20294;-79
2021/09/16 03:40:29;;;;;;;2.78;0.77;;;15.70;99.90;;;;;;5021298;28;20239;-79
2021/09/16 03:42:55;;;;;;;2.15;0.80;;;15.80;99.90;;;;;;5020083;28;20251;-78
2021/09/16 03:45:22;;;;;;;2.70;1.58;;;15.70;99.90;;;;;;5020697;28;20252;-78
2021/09/16 03:47:49;;;;;;;5.10;1.00;;;15.70;99.90;;;;;;5020529;28;20247;-79
2021/09/16 03:50:16;;;;;;;5.75;3.70;;;15.70;99.90;;;;;;5017545;28;20712;-79
2021/09/16 03:52:43;;;;;;;4.32;0.82;;;15.70;99.90;;;;;;5020232;28;20268;-78
2021/09/16 03:55:10;;;;;;;3.97;0.90;;;15.70;99.90;;;;;;5019747;28;20291;-78
2021/09/16 03:57:39;;;;;;;5.18;2.80;;;15.70;99.90;;;;;;5019749;28;20208;-78
2021/09/16 04:00:07;;;;;;;8.80;3.35;;;15.70;99.90;;;;;;5019626;28;20291;-78
2021/09/16 04:02:34;;;;;;;3.75;1.50;;;15.70;99.90;;;;;;5038345;28;20199;-78
2021/09/16 04:05:01;;;;;;;3.10;0.95;;;15.70;99.90;;;;;;5039806;28;20676;-79
2021/09/16 04:07:28;;;;;;;2.85;0.90;;;15.60;99.90;;;;;;5039537;28;20238;-78
2021/09/16 04:09:55;;;;;;;1.08;0.80;;;15.60;99.90;;;;;;5038998;28;20246;-79
2021/09/16 04:12:22;;;;;;;2.90;0.73;;;15.60;99.90;;;;;;5024609;28;20571;-79
2021/09/16 04:14:50;;;;;;;5.27;0.97;;;15.60;99.90;;;;;;5019247;28;20251;-79
2021/09/16 04:17:17;;;;;;;2.88;0.95;;;15.60;99.90;;;;;;5014701;28;20320;-79
2021/09/16 04:19:43;;;;;;;2.60;1.27;;;15.50;99.90;;;;;;4998901;28;20205;-79
2021/09/16 04:22:10;;;;;;;5.03;0.90;;;15.60;99.90;;;;;;5001058;28;20205;-79
2021/09/16 04:24:37;;;;;;;5.72;0.73;;;15.60;99.90;;;;;;5014798;28;20307;-79
2021/09/16 04:27:05;;;;;;;2.25;0.73;;;15.50;99.90;;;;;;5000650;28;20661;-78
2021/09/16 04:29:32;;;;;;;5.13;0.95;;;15.50;99.90;;;;;;5014297;28;20204;-79
2021/09/16 04:32:00;;;;;;;0.52;0.52;;;15.50;99.90;;;;;;5002952;28;20292;-79
2021/09/16 04:34:27;;;;;;;2.35;0.88;;;15.40;99.90;;;;;;5019805;28;20287;-80
2021/09/16 04:36:54;;;;;;;2.63;0.90;;;15.40;99.90;;;;;;5019077;28;20312;-79
2021/09/16 04:39:21;;;;;;;2.60;1.15;;;15.50;99.90;;;;;;5011936;28;20461;-78
2021/09/16 04:41:48;;;;;;;3.05;1.08;;;15.40;99.90;;;;;;5012366;28;20208;-78
2021/09/16 04:44:15;;;;;;;4.32;1.10;;;15.50;99.90;;;;;;5024329;28;20192;-78
2021/09/16 04:46:41;;;;;;;2.25;1.33;;;15.50;99.90;;;;;;5037906;28;20751;-78
2021/09/16 04:49:10;;;;;;;3.58;1.00;;;15.50;99.90;;;;;;5024659;28;20200;-79
2021/09/16 04:51:37;;;;;;;5.22;1.13;;;15.50;99.90;;;;;;5014674;28;20209;-78
2021/09/16 04:54:04;;;;;;;3.38;1.90;;;15.50;99.90;;;;;;5013263;28;20232;-79
2021/09/16 04:56:30;;;;;;;4.07;1.98;;;15.50;99.90;;;;;;5027684;28;20306;-79
2021/09/16 04:58:57;;;;;;;3.00;1.27;;;15.50;99.90;;;;;;5029706;28;20300;-79
2021/09/16 05:01:24;;;;;;;4.53;2.33;;;15.50;99.90;;;;;;5024392;28;20307;-78
2021/09/16 05:03:51;;;;;;;5.63;2.10;;;15.50;99.90;;;;;;5033293;28;20263;-79
2021/09/16 05:06:19;;;;;;;4.77;1.67;;;15.50;99.90;;;;;;5028738;28;20457;-79
2021/09/16 05:08:46;;;;;;;2.60;1.60;;;15.50;99.90;;;;;;5027962;28;20463;-79
2021/09/16 05:11:13;;;;;;;2.88;1.65;;;15.50;99.90;;;;;;5008482;28;20261;-78
2021/09/16 05:13:40;;;;;;;3.40;2.00;;;15.50;99.90;;;;;;5036342;28;20266;-79
2021/09/16 05:16:07;;;;;;;4.40;1.50;;;15.50;99.90;;;;;;5037037;28;20216;-78
2021/09/16 05:18:34;;;;;;;2.50;1.30;;;15.50;99.90;;;;;;5035797;28;20206;-79
2021/09/16 05:21:00;;;;;;;3.13;1.58;;;15.50;99.90;;;;;;5036051;28;20593;-78
2021/09/16 05:23:29;;;;;;;6.18;2.22;;;15.50;99.90;;;;;;5039883;28;20290;-78
2021/09/16 05:25:56;;;;;;;4.07;1.83;;;15.50;99.90;;;;;;5039323;28;20263;-78
2021/09/16 05:28:23;;;;;;;4.60;1.50;;;15.50;99.90;;;;;;5038829;28;20204;-78
2021/09/16 05:30:49;;;;;;;4.80;1.50;;;15.60;99.90;;;;;;5039304;28;20203;-78
2021/09/16 05:33:16;;;;;;;1.80;1.42;;;15.50;99.90;;;;;;5039019;28;20208;-79
2021/09/16 05:35:43;;;;;;;4.38;1.30;;;15.60;99.90;;;;;;5038270;28;20254;-78
2021/09/16 05:38:10;;;;;;;4.07;1.38;;;15.50;99.90;;;;;;5038479;28;20199;-78
2021/09/16 05:40:39;;;;;;;3.65;1.30;;;15.50;99.90;;;;;;5039556;28;20230;-79
2021/09/16 05:43:05;;;;;;;4.28;1.20;;;15.60;99.90;;;;;;5039769;28;20267;-78
2021/09/16 05:45:32;;;;;;;2.08;1.30;;;15.60;99.90;;;;;;5040363;28;20320;-79
2021/09/16 05:47:59;;;;;;;4.23;1.37;;;15.60;99.90;;;;;;5039419;28;20267;-80
2021/09/16 05:50:26;;;;;;;2.00;0.90;;;15.60;99.90;;;;;;5039907;28;20201;-78
2021/09/16 05:52:53;;;;;;;5.13;1.55;;;15.70;99.90;;;;;;5040010;28;20204;-80
2021/09/16 05:55:20;;;;;;;4.45;1.38;;;15.60;99.90;;;;;;5039608;28;20611;-78
2021/09/16 05:57:48;;;;;;;1.70;0.93;;;15.70;99.90;;;;;;5038254;28;20203;-81
2021/09/16 06:00:16;;;;;;;2.30;0.90;;;15.70;99.90;;;;;;5038098;28;20291;-80
2021/09/16 06:02:43;;;;;;;2.47;1.27;;;15.70;99.90;;;;;;5038671;28;20208;-79
2021/09/16 06:05:10;;;;;;;4.57;1.50;;;15.70;99.90;;;;;;5038310;28;20286;-78
2021/09/16 06:07:37;;;;;;;1.90;1.00;;;15.70;99.90;;;;;;5038245;28;20239;-80
2021/09/16 06:10:05;;;;;;;1.92;0.82;;;15.70;99.90;;;;;;5038514;28;20204;-79
2021/09/16 06:12:33;;;;;;;2.40;1.38;;;15.70;99.90;;;;;;5038145;28;20235;-80
2021/09/16 06:15:01;;;;;;;3.40;1.13;;;15.80;99.90;;;;;;5038319;28;20200;-79
2021/09/16 06:17:28;;;;;;;4.43;1.65;;;15.80;99.90;;;;;;5038663;28;20322;-79
2021/09/16 06:19:55;;;;;;;1.65;1.23;;;15.80;99.90;;;;;;5038350;28;20768;-78
2021/09/16 06:22:22;;;;;;;5.00;1.50;;;15.80;99.90;;;;;;5038421;28;20208;-79
2021/09/16 06:24:49;;;;;;;1.67;1.10;;;15.90;99.90;;;;;;5038988;28;20824;-78
2021/09/16 06:27:16;;;;;;;2.00;1.07;;;15.90;99.90;;;;;;5037281;28;20734;-79
2021/09/16 06:29:43;;;;;;;3.63;1.02;;;15.90;99.90;;;;;;5038023;28;20687;-78
2021/09/16 06:32:11;;;;;;;4.20;0.90;;;15.90;99.90;;;;;;5038037;28;20230;-79
2021/09/16 06:34:38;;;;;;;5.65;1.02;;;15.90;99.90;;;;;;5037806;28;20235;-79
2021/09/16 06:37:05;;;;;;;3.78;1.05;;;15.90;99.90;;;;;;5032944;28;20239;-78
2021/09/16 06:39:32;;;;;;;4.28;1.27;;;15.90;99.90;;;;;;5017356;28;20303;-78
2021/09/16 06:41:59;;;;;;;2.85;0.93;;;15.90;99.90;;;;;;5018028;28;20193;-78
2021/09/16 06:44:26;;;;;;;2.00;0.85;;;15.90;99.90;;;;;;5017643;28;20287;-78
2021/09/16 06:46:53;;;;;;;3.57;1.17;;;16.00;99.90;;;;;;5017282;28;20259;-79
2021/09/16 06:49:21;;;;;;;2.88;0.73;;;15.90;99.90;;;;;;5017261;28;20672;-79
2021/09/16 06:51:48;;;;;;;2.83;1.10;;;16.00;99.90;;;;;;5016235;28;20231;-78
2021/09/16 06:54:15;;;;;;;3.85;0.70;;;16.00;99.90;;;;;;5014445;28;20273;-77
2021/09/16 06:56:42;;;;;;;4.10;1.00;;;16.00;99.90;;;;;;5011742;28;20260;-79
2021/09/16 06:59:09;;;;;;;1.20;1.02;;;16.00;99.90;;;;;;5016646;28;20246;-79
2021/09/16 07:01:36;;;;;;;4.55;1.08;;;16.00;99.90;;;;;;5017289;28;20291;-78
2021/09/16 07:04:03;;;;;;;3.55;1.30;;;16.10;99.90;;;;;;5015970;28;20272;-77
2021/09/16 07:06:31;;;;;;;4.10;1.30;;;16.10;99.90;;;;;;5015953;28;20259;-78
2021/09/16 07:08:58;;;;;;;6.22;1.60;;;16.10;99.90;;;;;;5017169;28;20212;-79
2021/09/16 07:11:25;;;;;;;3.13;1.30;;;16.00;99.90;;;;;;5016163;28;20208;-79
2021/09/16 07:13:51;;;;;;;2.20;1.00;;;16.10;99.90;;;;;;5015739;28;20266;-79
2021/09/16 07:16:18;;;;;;;5.10;1.23;;;16.00;99.90;;;;;;5017393;28;20654;-79
2021/09/16 07:18:45;;;;;;;2.08;0.93;;;16.10;99.90;;;;;;5018295;28;20691;-78
2021/09/16 07:21:12;;;;;;;4.03;1.30;;;16.30;99.90;;;;;;5017064;28;20664;-79
2021/09/16 07:23:40;;;;;;;1.40;1.30;;;16.30;99.90;;;;;;5015747;28;20211;-78
2021/09/16 07:26:07;;;;;;;4.03;1.50;;;16.30;99.90;;;;;;5017049;28;20255;-78
2021/09/16 07:28:37;;;;;;;3.25;1.45;;;16.50;99.90;;;;;;5016092;28;20287;-78
2021/09/16 07:31:04;;;;;;;3.25;1.30;;;16.70;99.90;;;;;;5016598;28;20254;-77
2021/09/16 07:33:31;;;;;;;4.10;1.30;;;16.80;99.90;;;;;;5015510;28;20204;-78
2021/09/16 07:35:59;;;;;;;1.75;1.17;;;16.90;99.90;;;;;;5016547;28;20290;-78
2021/09/16 07:38:26;;;;;;;4.78;1.00;;;17.00;99.90;;;;;;5014238;28;20287;-78
2021/09/16 07:40:54;;;;;;;6.03;1.50;;;17.10;99.90;;;;;;5016691;28;20189;-79
2021/09/16 07:43:21;;;;;;;2.33;1.27;;;17.30;99.90;;;;;;5016256;28;20283;-78
2021/09/16 07:45:48;;;;;;;4.30;1.20;;;17.30;99.90;;;;;;5014531;28;20224;-78
2021/09/16 07:48:16;;;;;;;4.15;1.40;;;17.20;99.90;;;;;;5014683;28;20291;-79
2021/09/16 07:50:43;;;;;;;3.30;1.35;;;17.20;99.90;;;;;;5016710;28;20209;-78
2021/09/16 07:53:10;;;;;;;5.95;1.85;;;17.40;99.90;;;;;;5024756;28;20707;-78
2021/09/16 07:55:37;;;;;;;2.58;1.55;;;17.30;99.90;;;;;;5033866;28;20226;-78
2021/09/16 07:58:05;;;;;;;4.32;1.13;;;17.20;99.90;;;;;;5034127;28;20230;-79
2021/09/16 08:00:32;;;;;;;2.65;1.08;;;17.20;99.90;;;;;;5037957;28;20294;-78
2021/09/16 08:02:59;;;;;;;6.25;1.33;;;17.20;99.90;;;;;;5039357;28;20242;-79
2021/09/16 08:05:26;;;;;;;6.70;1.55;;;17.00;99.90;;;;;;5039560;28;20266;-79
2021/09/16 08:07:53;;;;;;;3.60;1.30;;;17.00;99.90;;;;;;5039220;28;20203;-79
2021/09/16 08:10:20;;;;;;;4.30;1.05;;;17.00;99.90;;;;;;5039566;28;20203;-78
2021/09/16 08:12:47;;;;;;;3.70;1.17;;;17.10;99.90;;;;;;5038392;28;20246;-79
2021/09/16 08:15:15;;;;;;;4.10;1.40;;;17.10;99.90;;;;;;5038892;28;20298;-80
2021/09/16 08:17:42;;;;;;;3.63;1.52;;;17.00;99.90;;;;;;5039216;28;20207;-79
2021/09/16 08:20:11;;;;;;;2.70;1.33;;;17.00;99.90;;;;;;5037501;28;20238;-79
2021/09/16 08:22:38;;;;;;;3.58;1.33;;;17.10;99.90;;;;;;5038492;28;20687;-78
2021/09/16 08:25:06;;;;;;;3.78;1.60;;;17.10;99.90;;;;;;5029994;28;20259;-79
2021/09/16 08:27:35;;;;;;;5.57;1.42;;;17.00;99.90;;;;;;5012157;28;20292;-79
2021/09/16 08:30:02;;;;;;;2.03;1.38;;;17.00;99.90;;;;;;5013010;28;20873;-80
2021/09/16 08:32:30;;;;;;;3.50;1.70;;;17.00;99.90;;;;;;5009639;28;20211;-78
2021/09/16 08:34:57;;;;;;;6.25;1.67;;;17.10;99.90;;;;;;5010040;28;20231;-80
2021/09/16 08:37:24;;;;;;;3.83;1.75;;;17.20;99.90;;;;;;5011341;28;20290;-79
2021/09/16 08:39:51;;;;;;;3.22;1.35;;;17.40;99.90;;;;;;5011331;28;20280;-78
2021/09/16 08:42:18;;;;;;;1.60;1.50;;;17.40;99.90;;;;;;4991743;28;20721;-81
2021/09/16 08:44:45;;;;;;;1.58;1.25;;;17.20;99.90;;;;;;4992923;28;20236;-78
2021/09/16 08:47:15;;;;;;;3.20;1.20;;;17.00;99.90;;;;;;4990215;28;20889;-81
2021/09/16 08:49:43;;;;;;;2.05;1.58;;;17.10;99.90;;;;;;4991691;28;20216;-79
2021/09/16 08:52:11;;;;;;;5.05;1.75;;;17.10;99.90;;;;;;4992767;28;20276;-78
2021/09/16 08:54:40;;;;;;;1.65;1.48;;;17.00;99.90;;;;;;4993005;28;20264;-78
2021/09/16 08:57:09;;;;;;;4.20;1.73;;;17.00;99.90;;;;;;4992330;28;20248;-79
2021/09/16 08:59:36;;;;;;;2.45;1.40;;;17.00;99.90;;;;;;4993161;28;20212;-81
2021/09/16 09:02:03;;;;;;;5.50;1.90;;;17.00;99.90;;;;;;4992031;28;20253;-79
2021/09/16 09:04:30;;;;;;;3.85;1.63;;;17.00;99.90;;;;;;4992077;28;20260;-78
2021/09/16 09:07:03;;;;;;;3.15;1.77;;;17.10;99.90;;;;;;4992030;28;20264;-80
2021/09/16 09:09:30;;;;;;;3.53;1.45;;;17.10;99.90;;;;;;4992581;28;20248;-78
2021/09/16 09:12:00;;;;;;;3.60;1.70;;;17.00;99.90;;;;;;4990261;28;20930;-79
2021/09/16 09:14:29;;;;;;;4.85;1.70;;;17.00;99.90;;;;;;4991210;28;20209;-79
2021/09/16 09:16:58;;;;;;;6.28;1.80;;;17.10;99.90;;;;;;4991511;28;20256;-80
2021/09/16 09:19:28;;;;;;;3.65;1.58;;;17.10;99.90;;;;;;4991997;28;20209;-79
2021/09/16 09:21:58;;;;;;;4.00;1.70;;;16.90;99.90;;;;;;4998853;28;20254;-78
2021/09/16 09:24:35;;;;;;;4.88;1.50;;;17.10;99.90;;;;;;4991619;28;20205;-79
2021/09/16 09:27:02;;;;;;;4.32;1.80;;;17.20;99.90;;;;;;5008692;28;20263;-78
2021/09/16 09:29:30;;;;;;;3.92;1.52;;;17.10;99.90;;;;;;5002249;28;20204;-81
2021/09/16 09:32:00;;;;;;;2.83;1.50;;;17.20;99.90;;;;;;5022184;28;20208;-78
2021/09/16 09:34:31;;;;;;;3.53;1.73;;;17.20;99.90;;;;;;5015261;28;20280;-80
2021/09/16 09:37:11;;;;;;;3.47;1.40;;;17.40;99.90;;;;;;5011516;28;20252;-80
2021/09/16 09:39:41;;;;;;;2.42;1.48;;;17.50;99.90;;;;;;5005878;28;20200;-80
2021/09/16 09:42:23;;;;;;;4.45;1.65;;;17.50;99.90;;;;;;5008939;28;20717;-79
2021/09/16 09:44:53;;;;;;;1.63;1.10;;;17.60;99.90;;;;;;5011738;28;20208;-80
2021/09/16 09:47:36;;;;;;;3.65;1.52;;;17.80;99.90;;;;;;5010578;28;20243;-79
2021/09/16 09:50:03;;;;;;;1.58;1.17;;;18.00;99.90;;;;;;4999658;28;20292;-79
2021/09/16 09:52:30;;;;;;;2.35;1.45;;;17.80;99.90;;;;;;4991276;28;21200;-80
2021/09/16 09:54:58;;;;;;;2.28;1.75;;;17.80;99.90;;;;;;4991914;28;20240;-79
2021/09/16 09:57:25;;;;;;;3.70;1.52;;;17.70;99.90;;;;;;5012797;28;20299;-79
2021/09/16 10:00:02;;;;;;;1.73;1.63;;;17.70;99.90;;;;;;5010245;28;20291;-81
2021/09/16 10:02:32;;;;;;;2.30;1.90;;;17.80;99.90;;;;;;4995951;28;20209;-78
2021/09/16 10:04:59;;;;;;;3.70;1.90;;;17.80;99.90;;;;;;4992826;28;20311;-80
2021/09/16 10:07:35;;;;;;;2.42;1.92;;;17.70;99.90;;;;;;5012094;28;20228;-79
2021/09/16 10:10:08;;;;;;;2.63;2.15;;;17.50;99.90;;;;;;5012313;28;20208;-79
2021/09/16 10:12:35;;;;;;;3.92;2.33;;;17.50;99.90;;;;;;4994866;28;20264;-79
2021/09/16 10:15:02;;;;;;;3.90;2.60;;;17.40;99.90;;;;;;4990749;28;20280;-80
2021/09/16 10:17:29;;;;;;;2.55;2.35;;;17.40;99.90;;;;;;4994773;28;20278;-79
2021/09/16 10:19:56;;;;;;;3.95;2.72;;;17.40;99.90;;;;;;5002582;28;20239;-80
2021/09/16 10:22:23;;;;;;;4.78;2.45;;;17.60;99.90;;;;;;5004738;28;20220;-80
2021/09/16 10:24:53;;;;;;;4.63;2.78;;;17.80;99.90;;;;;;4986360;28;20263;-81
2021/09/16 10:27:34;;;;;;;4.75;2.75;;;17.60;99.90;;;;;;4987985;28;20242;-79
2021/09/16 10:30:31;;;;;;;3.65;2.80;;;17.60;99.90;;;;;;4990596;28;20328;-79
2021/09/16 10:33:17;;;;;;;3.40;2.90;;;17.50;99.90;;;;;;5028235;28;20200;-81
2021/09/16 10:35:47;;;;;;;5.03;2.90;;;17.40;99.90;;;;;;5021375;28;20228;-79
2021/09/16 10:38:25;;;;;;;3.33;2.80;;;17.50;99.90;;;;;;5000900;28;20240;-80
2021/09/16 10:41:12;;;;;;;3.25;2.80;;;18.30;99.90;;;;;;5008612;28;20637;-81
2021/09/16 10:43:41;;;;;;;5.65;3.00;;;18.80;99.90;;;;;;4997082;28;20208;-80
2021/09/16 10:46:24;;;;;;;4.05;3.00;;;19.40;99.90;;;;;;5013529;28;20258;-80
2021/09/16 10:48:52;;;;;;;3.50;3.03;;;19.90;99.90;;;;;;5006496;28;20699;-79
2021/09/16 10:51:41;;;;;;;2.47;2.25;;;19.80;99.90;;;;;;5000418;28;20231;-80
2021/09/16 10:54:34;;;;;;;4.82;2.97;;;20.00;99.90;;;;;;4987111;28;20251;-79
2021/09/16 10:57:02;;;;;;;4.35;3.10;;;19.70;99.90;;;;;;4999611;28;20213;-79
2021/09/16 11:00:05;;;;;;;4.65;2.85;;;19.40;99.90;;;;;;4990389;28;20204;-79
2021/09/16 11:03:09;;;;;;;4.32;2.83;;;19.30;99.90;;;;;;4984624;28;20636;-78
2021/09/16 11:05:50;;;;;;;4.25;2.85;;;19.00;99.90;;;;;;4979932;28;20260;-78
2021/09/16 11:08:19;;;;;;;7.38;2.90;;;19.40;99.90;;;;;;4980204;28;20763;-79
2021/09/16 11:11:00;;;;;;;7.88;2.83;;;19.20;99.90;;;;;;5007572;28;20290;-78
2021/09/16 11:13:49;;;;;;;3.80;2.88;;;19.10;99.90;;;;;;4995766;28;20661;-78
2021/09/16 11:16:22;;;;;;;5.55;2.92;;;19.10;99.90;;;;;;4993183;28;20718;-80
2021/09/16 11:18:52;;;;;;;6.63;3.08;;;19.00;99.90;;;;;;4998479;28;20235;-80
2021/09/16 11:21:20;;;;;;;3.58;2.90;;;19.00;99.90;;;;;;4989302;28;20255;-79
2021/09/16 11:23:50;;;;;;;5.28;3.10;;;19.00;99.90;;;;;;4984101;28;20205;-79
2021/09/16 11:26:19;;;;;;;5.90;3.33;;;18.70;99.90;;;;;;4987282;28;21685;-79
2021/09/16 11:28:57;;;;;;;6.53;3.15;;;18.80;99.90;;;;;;4998628;28;20247;-78
2021/09/16 11:31:25;;;;;;;3.17;2.90;;;18.80;99.90;;;;;;4998940;28;20199;-78
2021/09/16 11:34:12;;;;;;;2.90;2.63;;;18.80;99.90;;;;;;5012922;28;20208;-79
2021/09/16 11:37:09;;;;;;;5.47;3.40;;;19.00;99.90;;;;;;5012028;28;20229;-79
2021/09/16 11:39:37;;;;;;;4.38;2.90;;;18.90;99.90;;;;;;5012852;28;20276;-79
2021/09/16 11:42:12;;;;;;;3.75;2.75;;;19.00;99.90;;;;;;5008535;28;20258;-79
2021/09/16 11:44:58;;;;;;;5.68;3.33;;;19.10;99.90;;;;;;5008249;28;20587;-78
2021/09/16 11:47:27;;;;;;;6.78;2.88;;;18.90;99.90;;;;;;5006732;28;20224;-79
2021/09/16 11:49:54;;;;;;;6.18;2.95;;;19.10;99.90;;;;;;5005995;28;20212;-78
2021/09/16 11:52:23;;;;;;;3.42;2.60;;;19.30;99.90;;;;;;5002746;28;20328;-79
2021/09/16 11:55:05;;;;;;;5.93;3.00;;;19.40;99.90;;;;;;5008924;28;20201;-80
2021/09/16 11:57:32;;;;;;;4.82;2.83;;;19.40;99.90;;;;;;5006735;28;20295;-82
2021/09/16 12:00:18;;;;;;;5.35;3.50;;;19.30;99.90;;;;;;5011512;28;20212;-78
2021/09/16 12:02:49;;;;;;;5.75;2.97;;;19.30;99.90;;;;;;4996822;28;20205;-79
2021/09/16 12:05:41;;;;;;;3.60;3.10;;;19.30;99.90;;;;;;4993297;28;20296;-78
2021/09/16 12:08:10;;;;;;;4.60;2.72;;;19.00;99.90;;;;;;5006148;28;20716;-79
2021/09/16 12:10:46;;;;;;;7.53;3.08;;;18.90;99.90;;;;;;5006735;28;20295;-79
2021/09/16 12:13:19;;;;;;;6.38;2.83;;;18.90;99.90;;;;;;5008425;28;20215;-78
2021/09/16 12:15:47;;;;;;;6.93;2.80;;;19.10;99.90;;;;;;5010559;28;20224;-78
2021/09/16 12:18:16;;;;;;;4.70;2.90;;;19.20;99.90;;;;;;5010020;28;20235;-79
2021/09/16 12:20:46;;;;;;;4.38;2.58;;;18.90;99.90;;;;;;5012515;28;20232;-79
2021/09/16 12:23:15;;;;;;;4.55;2.80;;;18.80;99.90;;;;;;5002911;28;20680;-77
2021/09/16 12:25:55;;;;;;;6.20;2.55;;;18.70;99.90;;;;;;5005797;28;20267;-78
2021/09/16 12:28:22;;;;;;;6.43;2.75;;;18.90;99.90;;;;;;5013598;28;20292;-78
2021/09/16 12:30:49;;;;;;;4.18;2.80;;;18.90;99.90;;;;;;5008842;28;20539;-78
2021/09/16 12:33:33;;;;;;;4.45;2.78;;;18.50;99.90;;;;;;5012372;28;20211;-78
2021/09/16 12:36:19;;;;;;;4.82;2.70;;;18.60;99.90;;;;;;4997773;28;20264;-78
2021/09/16 12:38:49;;;;;;;3.15;2.50;;;18.60;99.90;;;;;;5005823;28;20228;-78
2021/09/16 12:41:35;;;;;;;5.97;2.70;;;18.70;99.90;;;;;;5002667;28;20295;-79
2021/09/16 12:44:16;;;;;;;7.03;3.25;;;18.60;99.90;;;;;;5001013;28;20229;-78
2021/09/16 12:46:53;;;;;;;6.47;3.15;;;18.60;99.90;;;;;;5010569;28;20288;-79
2021/09/16 12:49:49;;;;;;;5.50;3.08;;;18.60;99.90;;;;;;5008098;28;20261;-78
2021/09/16 12:52:21;;;;;;;5.25;2.97;;;18.70;99.90;;;;;;5005831;28;20295;-78
2021/09/16 12:54:50;;;;;;;3.42;2.38;;;18.70;99.90;;;;;;5010914;28;20232;-78
2021/09/16 12:57:17;;;;;;;5.53;3.08;;;18.80;99.90;;;;;;5013178;28;20220;-78